Monroe, WI

12:30 AM CDT on May 25, 2015 (GMT -0500)
ValleyViewVet | | Change Station
CLOSE
Current Station
Personal Weather Station
Location: Monroe, WI
Elevation: 1060 ft
Nearby Weather Stations

Elev 1060 ft 42.59 °N, 89.66 °W | Updated 10 seconds ago

Light Rain
Light Rain
65.7 °F
Feels Like 65.7 °F
N
2.9
Wind Variable Wind from SSE
Gusts 5.0 mph

Today
High -- | Low -- °F
--% Chance of Precip.
Yesterday
High -- | Low -- °F
Precip. -- in
5:27 AM 8:23 PM
Waxing Crescent, 45% visible
Pressure 29.85 in
Visibility 10.0 miles
Clouds Scattered Clouds 1300 ft
Scattered Clouds 4400 ft
Mostly Cloudy 11000 ft
Dew Point 65 °F
Humidity 98%
Rainfall 0.00 in
Snow Depth Not available.
UV 0 out of 12
Pollen 8.20 out of 12
Air Quality Not available.
Flu Activity Sporadic
METAR KEFT 250515Z AUTO 19011G16KT 10SM -RA SCT013 SCT044 BKN110 18/18 A2985 RMK AO2

More Conditions Fewer Conditions

Pressure 29.85 in
Visibility 10.0 miles
Clouds Scattered Clouds 1300 ft
Scattered Clouds 4400 ft
Mostly Cloudy 11000 ft
Dew Point 65 °F
Humidity 98%
Rainfall 0.00 in
Snow Depth Not available.
UV 0 out of 12
Pollen 8.20 out of 12
Air Quality Not available.
Flu Activity Sporadic
METAR KEFT 250515Z AUTO 19011G16KT 10SM -RA SCT013 SCT044 BKN110 18/18 A2985 RMK AO2

More Conditions Fewer Conditions

10-Day Weather Forecast

Almanac

Astronomy

May. 25, 2015 Rise Set
Actual Time
Civil Twilight
Nautical Twilight
Astronomical Twilight
Moon
Length of Visible Light
Length of Day
Tomorrow will be .
, % of the Moon is Illuminated

Today's Extremes

State Highs State Lows

Community

WunderPhotos

Upload Photos

1,823,956 photos uploaded!

WunderBlogs® & News

Nearby

Air Quality

  Air Quality AQ Index Pollutant
Not available.

Snow Depth

Station Depth Elevation

Earthquake Activity

City Distance Mag. Time & Date
Minimum magnitude displayed is 2.5.

Coastal Water Temperatures

Place Temperature

Stations

Nearby Weather Stations

Station Location Temp. Windchill Dew Point Humidity Wind Precip. Elev Updated Type